sensor_id;sensor_type;location;lat;lon;timestamp;P1;durP1;ratioP1;P2;durP2;ratioP2
77099;SDS011;66602;48.922;2.414;2024-01-27T00:02:06;17.55;;;10.02;;
77099;SDS011;66602;48.922;2.414;2024-01-27T00:04:32;11.32;;;8.68;;
77099;SDS011;66602;48.922;2.414;2024-01-27T00:07:00;14.07;;;9.02;;
77099;SDS011;66602;48.922;2.414;2024-01-27T00:09:31;14.20;;;10.52;;
77099;SDS011;66602;48.922;2.414;2024-01-27T00:11:58;16.75;;;10.32;;
77099;SDS011;66602;48.922;2.414;2024-01-27T00:14:24;13.40;;;9.75;;
77099;SDS011;66602;48.922;2.414;2024-01-27T00:16:50;16.67;;;9.45;;
77099;SDS011;66602;48.922;2.414;2024-01-27T00:19:15;12.98;;;9.77;;
77099;SDS011;66602;48.922;2.414;2024-01-27T00:21:42;13.07;;;9.85;;
77099;SDS011;66602;48.922;2.414;2024-01-27T00:24:09;16.13;;;10.25;;
77099;SDS011;66602;48.922;2.414;2024-01-27T00:26:34;11.18;;;9.85;;
77099;SDS011;66602;48.922;2.414;2024-01-27T00:29:40;17.52;;;10.48;;
77099;SDS011;66602;48.922;2.414;2024-01-27T00:32:15;20.67;;;10.98;;
77099;SDS011;66602;48.922;2.414;2024-01-27T00:34:44;25.55;;;10.52;;
77099;SDS011;66602;48.922;2.414;2024-01-27T00:37:29;24.95;;;11.25;;
77099;SDS011;66602;48.922;2.414;2024-01-27T00:40:01;21.33;;;10.52;;
77099;SDS011;66602;48.922;2.414;2024-01-27T00:42:30;22.30;;;10.82;;
77099;SDS011;66602;48.922;2.414;2024-01-27T00:45:24;13.18;;;9.80;;
77099;SDS011;66602;48.922;2.414;2024-01-27T00:47:56;15.38;;;9.95;;
77099;SDS011;66602;48.922;2.414;2024-01-27T00:50:24;15.15;;;10.20;;
77099;SDS011;66602;48.922;2.414;2024-01-27T00:52:51;17.50;;;10.02;;
77099;SDS011;66602;48.922;2.414;2024-01-27T00:55:17;13.05;;;9.45;;
77099;SDS011;66602;48.922;2.414;2024-01-27T00:57:43;12.68;;;9.77;;
77099;SDS011;66602;48.922;2.414;2024-01-27T01:00:09;20.52;;;11.95;;
77099;SDS011;66602;48.922;2.414;2024-01-27T01:02:36;14.68;;;10.00;;
77099;SDS011;66602;48.922;2.414;2024-01-27T01:05:02;19.88;;;11.38;;
77099;SDS011;66602;48.922;2.414;2024-01-27T01:07:31;20.70;;;11.13;;
77099;SDS011;66602;48.922;2.414;2024-01-27T01:09:57;12.20;;;9.95;;
77099;SDS011;66602;48.922;2.414;2024-01-27T01:12:23;22.23;;;10.10;;
77099;SDS011;66602;48.922;2.414;2024-01-27T01:14:50;13.43;;;10.18;;
77099;SDS011;66602;48.922;2.414;2024-01-27T01:17:16;29.88;;;11.23;;
77099;SDS011;66602;48.922;2.414;2024-01-27T01:19:41;17.35;;;10.82;;
77099;SDS011;66602;48.922;2.414;2024-01-27T01:22:07;22.77;;;10.82;;
77099;SDS011;66602;48.922;2.414;2024-01-27T01:24:33;17.25;;;9.82;;
77099;SDS011;66602;48.922;2.414;2024-01-27T01:27:00;17.45;;;10.32;;
77099;SDS011;66602;48.922;2.414;2024-01-27T01:29:26;18.75;;;10.32;;
77099;SDS011;66602;48.922;2.414;2024-01-27T01:31:52;19.70;;;10.32;;
77099;SDS011;66602;48.922;2.414;2024-01-27T01:34:21;14.80;;;10.23;;
77099;SDS011;66602;48.922;2.414;2024-01-27T01:36:46;21.38;;;10.63;;
77099;SDS011;66602;48.922;2.414;2024-01-27T01:39:13;10.63;;;9.43;;
77099;SDS011;66602;48.922;2.414;2024-01-27T01:41:39;21.00;;;10.65;;
77099;SDS011;66602;48.922;2.414;2024-01-27T01:44:06;17.90;;;10.00;;
77099;SDS011;66602;48.922;2.414;2024-01-27T01:46:33;20.92;;;10.32;;
77099;SDS011;66602;48.922;2.414;2024-01-27T01:48:59;19.65;;;11.00;;
77099;SDS011;66602;48.922;2.414;2024-01-27T01:51:25;15.15;;;10.38;;
77099;SDS011;66602;48.922;2.414;2024-01-27T01:53:52;20.38;;;11.02;;
77099;SDS011;66602;48.922;2.414;2024-01-27T01:56:23;25.92;;;12.02;;
77099;SDS011;66602;48.922;2.414;2024-01-27T01:58:50;21.13;;;13.77;;
77099;SDS011;66602;48.922;2.414;2024-01-27T02:01:19;20.20;;;12.00;;
77099;SDS011;66602;48.922;2.414;2024-01-27T02:03:55;17.92;;;11.73;;
77099;SDS011;66602;48.922;2.414;2024-01-27T02:06:22;17.38;;;11.32;;
77099;SDS011;66602;48.922;2.414;2024-01-27T02:08:47;16.02;;;10.68;;
77099;SDS011;66602;48.922;2.414;2024-01-27T02:11:13;19.50;;;11.75;;
77099;SDS011;66602;48.922;2.414;2024-01-27T02:13:38;21.35;;;12.30;;
77099;SDS011;66602;48.922;2.414;2024-01-27T02:16:05;22.80;;;12.85;;
77099;SDS011;66602;48.922;2.414;2024-01-27T02:18:30;16.65;;;12.05;;
77099;SDS011;66602;48.922;2.414;2024-01-27T02:20:56;31.85;;;16.90;;
77099;SDS011;66602;48.922;2.414;2024-01-27T02:23:21;29.98;;;17.48;;
77099;SDS011;66602;48.922;2.414;2024-01-27T02:25:47;32.15;;;16.67;;
77099;SDS011;66602;48.922;2.414;2024-01-27T02:28:12;23.42;;;12.95;;
77099;SDS011;66602;48.922;2.414;2024-01-27T02:30:38;23.58;;;12.57;;
77099;SDS011;66602;48.922;2.414;2024-01-27T02:33:04;15.45;;;11.18;;
77099;SDS011;66602;48.922;2.414;2024-01-27T02:35:30;19.77;;;12.07;;
77099;SDS011;66602;48.922;2.414;2024-01-27T02:37:56;19.52;;;11.48;;
77099;SDS011;66602;48.922;2.414;2024-01-27T02:40:21;17.42;;;12.05;;
77099;SDS011;66602;48.922;2.414;2024-01-27T02:42:47;18.02;;;11.00;;
77099;SDS011;66602;48.922;2.414;2024-01-27T02:45:12;14.60;;;11.55;;
77099;SDS011;66602;48.922;2.414;2024-01-27T02:47:38;15.63;;;11.50;;
77099;SDS011;66602;48.922;2.414;2024-01-27T02:50:04;19.73;;;11.35;;
77099;SDS011;66602;48.922;2.414;2024-01-27T02:52:31;13.32;;;11.55;;
77099;SDS011;66602;48.922;2.414;2024-01-27T02:54:57;19.92;;;11.73;;
77099;SDS011;66602;48.922;2.414;2024-01-27T02:57:23;19.63;;;11.38;;
77099;SDS011;66602;48.922;2.414;2024-01-27T02:59:48;15.52;;;11.43;;
77099;SDS011;66602;48.922;2.414;2024-01-27T03:02:14;13.23;;;10.75;;
77099;SDS011;66602;48.922;2.414;2024-01-27T03:04:40;12.20;;;10.35;;
77099;SDS011;66602;48.922;2.414;2024-01-27T03:07:06;12.93;;;10.93;;
77099;SDS011;66602;48.922;2.414;2024-01-27T03:09:32;18.02;;;10.95;;
77099;SDS011;66602;48.922;2.414;2024-01-27T03:11:57;25.13;;;12.63;;
77099;SDS011;66602;48.922;2.414;2024-01-27T03:14:23;19.42;;;12.30;;
77099;SDS011;66602;48.922;2.414;2024-01-27T03:16:49;17.60;;;11.77;;
77099;SDS011;66602;48.922;2.414;2024-01-27T03:19:15;13.93;;;11.15;;
77099;SDS011;66602;48.922;2.414;2024-01-27T03:21:41;16.08;;;11.32;;
77099;SDS011;66602;48.922;2.414;2024-01-27T03:24:07;21.42;;;11.98;;
77099;SDS011;66602;48.922;2.414;2024-01-27T03:26:32;25.52;;;13.40;;
77099;SDS011;66602;48.922;2.414;2024-01-27T03:28:58;18.23;;;12.18;;
77099;SDS011;66602;48.922;2.414;2024-01-27T03:31:23;21.80;;;13.38;;
77099;SDS011;66602;48.922;2.414;2024-01-27T03:33:55;22.33;;;13.10;;
77099;SDS011;66602;48.922;2.414;2024-01-27T03:36:22;17.67;;;12.52;;
77099;SDS011;66602;48.922;2.414;2024-01-27T03:38:48;21.05;;;11.60;;
77099;SDS011;66602;48.922;2.414;2024-01-27T03:41:14;14.18;;;11.68;;
77099;SDS011;66602;48.922;2.414;2024-01-27T03:43:39;16.05;;;12.10;;
77099;SDS011;66602;48.922;2.414;2024-01-27T03:46:05;16.42;;;11.50;;
77099;SDS011;66602;48.922;2.414;2024-01-27T03:48:31;18.88;;;11.85;;
77099;SDS011;66602;48.922;2.414;2024-01-27T03:50:56;23.70;;;12.48;;
77099;SDS011;66602;48.922;2.414;2024-01-27T03:53:22;24.15;;;12.80;;
77099;SDS011;66602;48.922;2.414;2024-01-27T03:55:48;24.15;;;13.75;;
77099;SDS011;66602;48.922;2.414;2024-01-27T03:58:13;24.13;;;14.25;;
77099;SDS011;66602;48.922;2.414;2024-01-27T04:00:39;19.13;;;13.35;;
77099;SDS011;66602;48.922;2.414;2024-01-27T04:03:04;33.10;;;15.07;;
77099;SDS011;66602;48.922;2.414;2024-01-27T04:05:30;27.30;;;14.48;;
77099;SDS011;66602;48.922;2.414;2024-01-27T04:07:55;22.35;;;14.05;;
77099;SDS011;66602;48.922;2.414;2024-01-27T04:10:21;22.27;;;14.05;;
77099;SDS011;66602;48.922;2.414;2024-01-27T04:12:48;19.65;;;13.80;;
77099;SDS011;66602;48.922;2.414;2024-01-27T04:15:14;22.65;;;13.77;;
77099;SDS011;66602;48.922;2.414;2024-01-27T04:17:42;17.67;;;12.50;;
77099;SDS011;66602;48.922;2.414;2024-01-27T04:20:09;18.75;;;13.90;;
77099;SDS011;66602;48.922;2.414;2024-01-27T04:22:35;22.08;;;13.88;;
77099;SDS011;66602;48.922;2.414;2024-01-27T04:25:00;26.67;;;14.48;;
77099;SDS011;66602;48.922;2.414;2024-01-27T04:27:27;23.55;;;14.20;;
77099;SDS011;66602;48.922;2.414;2024-01-27T04:29:53;23.00;;;14.90;;
77099;SDS011;66602;48.922;2.414;2024-01-27T04:32:18;26.25;;;14.55;;
77099;SDS011;66602;48.922;2.414;2024-01-27T04:34:46;31.58;;;15.60;;
77099;SDS011;66602;48.922;2.414;2024-01-27T04:37:12;25.33;;;14.50;;
77099;SDS011;66602;48.922;2.414;2024-01-27T04:39:38;25.70;;;13.77;;
77099;SDS011;66602;48.922;2.414;2024-01-27T04:42:03;15.05;;;12.73;;
77099;SDS011;66602;48.922;2.414;2024-01-27T04:44:31;27.05;;;14.88;;
77099;SDS011;66602;48.922;2.414;2024-01-27T04:46:57;29.75;;;15.32;;
77099;SDS011;66602;48.922;2.414;2024-01-27T04:49:22;22.77;;;14.77;;
77099;SDS011;66602;48.922;2.414;2024-01-27T04:51:48;22.08;;;13.05;;
77099;SDS011;66602;48.922;2.414;2024-01-27T04:54:13;26.20;;;13.05;;
77099;SDS011;66602;48.922;2.414;2024-01-27T04:56:40;20.65;;;14.00;;
77099;SDS011;66602;48.922;2.414;2024-01-27T04:59:05;23.75;;;14.07;;
77099;SDS011;66602;48.922;2.414;2024-01-27T05:01:31;26.30;;;12.80;;
77099;SDS011;66602;48.922;2.414;2024-01-27T05:03:57;26.30;;;13.32;;
77099;SDS011;66602;48.922;2.414;2024-01-27T05:06:22;22.48;;;13.75;;
77099;SDS011;66602;48.922;2.414;2024-01-27T05:08:49;25.50;;;13.75;;
77099;SDS011;66602;48.922;2.414;2024-01-27T05:11:16;26.50;;;14.95;;
77099;SDS011;66602;48.922;2.414;2024-01-27T05:13:50;18.85;;;13.65;;
77099;SDS011;66602;48.922;2.414;2024-01-27T05:16:15;19.50;;;12.52;;
77099;SDS011;66602;48.922;2.414;2024-01-27T05:18:41;22.15;;;12.00;;
77099;SDS011;66602;48.922;2.414;2024-01-27T05:21:07;15.00;;;11.02;;
77099;SDS011;66602;48.922;2.414;2024-01-27T05:23:45;15.27;;;11.02;;
77099;SDS011;66602;48.922;2.414;2024-01-27T05:26:10;11.65;;;10.45;;
77099;SDS011;66602;48.922;2.414;2024-01-27T05:28:36;11.57;;;10.23;;
77099;SDS011;66602;48.922;2.414;2024-01-27T05:31:06;19.52;;;11.25;;
77099;SDS011;66602;48.922;2.414;2024-01-27T05:33:37;17.80;;;10.93;;
77099;SDS011;66602;48.922;2.414;2024-01-27T05:36:07;15.82;;;10.18;;
77099;SDS011;66602;48.922;2.414;2024-01-27T05:38:38;11.32;;;10.13;;
77099;SDS011;66602;48.922;2.414;2024-01-27T05:41:26;13.50;;;10.30;;
77099;SDS011;66602;48.922;2.414;2024-01-27T05:43:54;13.98;;;9.93;;
77099;SDS011;66602;48.922;2.414;2024-01-27T05:46:25;15.02;;;11.10;;
77099;SDS011;66602;48.922;2.414;2024-01-27T05:48:52;15.20;;;11.48;;
77099;SDS011;66602;48.922;2.414;2024-01-27T05:51:22;19.17;;;10.75;;
77099;SDS011;66602;48.922;2.414;2024-01-27T05:53:50;13.45;;;9.82;;
77099;SDS011;66602;48.922;2.414;2024-01-27T05:56:31;22.15;;;12.25;;
77099;SDS011;66602;48.922;2.414;2024-01-27T05:59:39;19.52;;;10.88;;
77099;SDS011;66602;48.922;2.414;2024-01-27T06:02:10;19.35;;;11.77;;
77099;SDS011;66602;48.922;2.414;2024-01-27T06:04:37;16.80;;;10.98;;
77099;SDS011;66602;48.922;2.414;2024-01-27T06:07:03;12.02;;;11.07;;
77099;SDS011;66602;48.922;2.414;2024-01-27T06:09:31;12.00;;;10.55;;
77099;SDS011;66602;48.922;2.414;2024-01-27T06:12:03;16.83;;;10.88;;
77099;SDS011;66602;48.922;2.414;2024-01-27T06:14:31;16.35;;;10.70;;
77099;SDS011;66602;48.922;2.414;2024-01-27T06:17:01;18.63;;;11.88;;
77099;SDS011;66602;48.922;2.414;2024-01-27T06:19:41;21.45;;;10.60;;
77099;SDS011;66602;48.922;2.414;2024-01-27T06:22:09;16.70;;;11.30;;
77099;SDS011;66602;48.922;2.414;2024-01-27T06:24:42;17.63;;;10.02;;
77099;SDS011;66602;48.922;2.414;2024-01-27T06:27:10;12.60;;;10.25;;
77099;SDS011;66602;48.922;2.414;2024-01-27T06:29:38;12.70;;;10.25;;
77099;SDS011;66602;48.922;2.414;2024-01-27T06:32:25;15.00;;;10.50;;
77099;SDS011;66602;48.922;2.414;2024-01-27T06:34:59;18.27;;;11.45;;
77099;SDS011;66602;48.922;2.414;2024-01-27T06:37:34;15.73;;;9.88;;
77099;SDS011;66602;48.922;2.414;2024-01-27T06:40:05;19.00;;;11.20;;
77099;SDS011;66602;48.922;2.414;2024-01-27T06:42:34;13.60;;;10.80;;
77099;SDS011;66602;48.922;2.414;2024-01-27T06:45:01;18.27;;;11.65;;
77099;SDS011;66602;48.922;2.414;2024-01-27T06:47:28;17.48;;;10.73;;
77099;SDS011;66602;48.922;2.414;2024-01-27T06:49:58;13.77;;;10.90;;
77099;SDS011;66602;48.922;2.414;2024-01-27T06:52:33;13.30;;;11.73;;
77099;SDS011;66602;48.922;2.414;2024-01-27T06:55:00;12.15;;;9.93;;
77099;SDS011;66602;48.922;2.414;2024-01-27T06:57:26;14.82;;;9.50;;
77099;SDS011;66602;48.922;2.414;2024-01-27T06:59:53;10.98;;;9.48;;
77099;SDS011;66602;48.922;2.414;2024-01-27T07:02:58;13.82;;;9.68;;
77099;SDS011;66602;48.922;2.414;2024-01-27T07:05:24;21.77;;;10.32;;
77099;SDS011;66602;48.922;2.414;2024-01-27T07:08:04;13.48;;;9.77;;
77099;SDS011;66602;48.922;2.414;2024-01-27T07:13:34;11.85;;;10.60;;
77099;SDS011;66602;48.922;2.414;2024-01-27T07:16:22;12.93;;;10.50;;
77099;SDS011;66602;48.922;2.414;2024-01-27T07:18:48;12.55;;;11.05;;
77099;SDS011;66602;48.922;2.414;2024-01-27T07:21:14;12.95;;;11.57;;
77099;SDS011;66602;48.922;2.414;2024-01-27T07:23:41;23.52;;;12.43;;
77099;SDS011;66602;48.922;2.414;2024-01-27T07:26:12;16.30;;;11.80;;
77099;SDS011;66602;48.922;2.414;2024-01-27T07:28:38;16.05;;;11.43;;
77099;SDS011;66602;48.922;2.414;2024-01-27T07:31:07;16.27;;;12.27;;
77099;SDS011;66602;48.922;2.414;2024-01-27T07:33:33;12.63;;;10.65;;
77099;SDS011;66602;48.922;2.414;2024-01-27T07:35:58;21.23;;;11.93;;
77099;SDS011;66602;48.922;2.414;2024-01-27T07:38:24;21.08;;;11.38;;
77099;SDS011;66602;48.922;2.414;2024-01-27T07:40:51;16.63;;;11.82;;
77099;SDS011;66602;48.922;2.414;2024-01-27T07:43:28;16.50;;;11.63;;
77099;SDS011;66602;48.922;2.414;2024-01-27T07:45:53;23.58;;;12.23;;
77099;SDS011;66602;48.922;2.414;2024-01-27T07:48:19;19.27;;;11.70;;
77099;SDS011;66602;48.922;2.414;2024-01-27T07:50:47;13.43;;;11.60;;
77099;SDS011;66602;48.922;2.414;2024-01-27T07:53:18;14.73;;;11.32;;
77099;SDS011;66602;48.922;2.414;2024-01-27T07:55:44;16.35;;;12.50;;
77099;SDS011;66602;48.922;2.414;2024-01-27T07:58:09;21.65;;;13.30;;
77099;SDS011;66602;48.922;2.414;2024-01-27T08:00:37;25.88;;;13.38;;
77099;SDS011;66602;48.922;2.414;2024-01-27T08:03:03;16.98;;;12.40;;
77099;SDS011;66602;48.922;2.414;2024-01-27T08:05:32;17.88;;;13.75;;
77099;SDS011;66602;48.922;2.414;2024-01-27T08:08:01;16.42;;;12.27;;
77099;SDS011;66602;48.922;2.414;2024-01-27T08:10:28;16.30;;;12.65;;
77099;SDS011;66602;48.922;2.414;2024-01-27T08:12:54;27.45;;;14.00;;
77099;SDS011;66602;48.922;2.414;2024-01-27T08:15:21;15.10;;;13.05;;
77099;SDS011;66602;48.922;2.414;2024-01-27T08:17:46;18.35;;;12.90;;
77099;SDS011;66602;48.922;2.414;2024-01-27T08:20:12;20.35;;;12.80;;
77099;SDS011;66602;48.922;2.414;2024-01-27T08:22:38;17.23;;;13.70;;
77099;SDS011;66602;48.922;2.414;2024-01-27T08:25:03;22.02;;;13.57;;
77099;SDS011;66602;48.922;2.414;2024-01-27T08:27:29;21.75;;;14.82;;
77099;SDS011;66602;48.922;2.414;2024-01-27T08:29:55;30.45;;;16.02;;
77099;SDS011;66602;48.922;2.414;2024-01-27T08:32:21;25.48;;;14.85;;
77099;SDS011;66602;48.922;2.414;2024-01-27T08:34:47;21.73;;;15.57;;
77099;SDS011;66602;48.922;2.414;2024-01-27T08:37:18;30.02;;;16.67;;
77099;SDS011;66602;48.922;2.414;2024-01-27T08:39:44;27.65;;;17.75;;
77099;SDS011;66602;48.922;2.414;2024-01-27T08:42:10;23.27;;;17.20;;
77099;SDS011;66602;48.922;2.414;2024-01-27T08:44:36;34.60;;;18.85;;
77099;SDS011;66602;48.922;2.414;2024-01-27T08:47:01;25.08;;;16.73;;
77099;SDS011;66602;48.922;2.414;2024-01-27T08:49:27;27.23;;;16.73;;
77099;SDS011;66602;48.922;2.414;2024-01-27T08:51:52;25.85;;;15.75;;
77099;SDS011;66602;48.922;2.414;2024-01-27T08:54:18;18.70;;;13.88;;
77099;SDS011;66602;48.922;2.414;2024-01-27T08:56:44;23.98;;;15.23;;
77099;SDS011;66602;48.922;2.414;2024-01-27T08:59:09;21.92;;;13.75;;
77099;SDS011;66602;48.922;2.414;2024-01-27T09:01:35;25.75;;;14.05;;
77099;SDS011;66602;48.922;2.414;2024-01-27T09:04:00;25.00;;;13.10;;
77099;SDS011;66602;48.922;2.414;2024-01-27T09:06:26;22.45;;;13.98;;
77099;SDS011;66602;48.922;2.414;2024-01-27T09:08:51;24.70;;;13.63;;
77099;SDS011;66602;48.922;2.414;2024-01-27T09:11:17;22.05;;;13.05;;
77099;SDS011;66602;48.922;2.414;2024-01-27T09:13:42;17.08;;;12.63;;
77099;SDS011;66602;48.922;2.414;2024-01-27T09:16:10;25.27;;;14.52;;
77099;SDS011;66602;48.922;2.414;2024-01-27T09:18:38;17.75;;;13.05;;
77099;SDS011;66602;48.922;2.414;2024-01-27T09:21:04;26.30;;;13.98;;
77099;SDS011;66602;48.922;2.414;2024-01-27T09:23:29;24.65;;;13.27;;
77099;SDS011;66602;48.922;2.414;2024-01-27T09:25:55;27.00;;;15.05;;
77099;SDS011;66602;48.922;2.414;2024-01-27T09:28:20;25.08;;;14.77;;
77099;SDS011;66602;48.922;2.414;2024-01-27T09:30:45;24.88;;;14.40;;
77099;SDS011;66602;48.922;2.414;2024-01-27T09:33:11;22.10;;;12.82;;
77099;SDS011;66602;48.922;2.414;2024-01-27T09:35:37;24.90;;;14.23;;
77099;SDS011;66602;48.922;2.414;2024-01-27T09:38:02;22.15;;;12.80;;
77099;SDS011;66602;48.922;2.414;2024-01-27T09:40:28;16.83;;;11.98;;
77099;SDS011;66602;48.922;2.414;2024-01-27T09:42:53;17.60;;;11.43;;
77099;SDS011;66602;48.922;2.414;2024-01-27T09:45:22;22.73;;;13.20;;
77099;SDS011;66602;48.922;2.414;2024-01-27T09:47:48;33.20;;;13.60;;
77099;SDS011;66602;48.922;2.414;2024-01-27T09:50:14;22.85;;;12.40;;
77099;SDS011;66602;48.922;2.414;2024-01-27T09:52:42;24.77;;;13.43;;
77099;SDS011;66602;48.922;2.414;2024-01-27T09:55:08;16.50;;;12.43;;
77099;SDS011;66602;48.922;2.414;2024-01-27T09:57:34;19.73;;;11.70;;
77099;SDS011;66602;48.922;2.414;2024-01-27T10:00:03;22.23;;;11.38;;
77099;SDS011;66602;48.922;2.414;2024-01-27T10:02:30;14.88;;;10.57;;
77099;SDS011;66602;48.922;2.414;2024-01-27T10:04:58;24.92;;;10.88;;
77099;SDS011;66602;48.922;2.414;2024-01-27T10:07:25;21.70;;;9.45;;
77099;SDS011;66602;48.922;2.414;2024-01-27T10:09:50;19.15;;;9.50;;
77099;SDS011;66602;48.922;2.414;2024-01-27T10:12:16;18.80;;;9.00;;
77099;SDS011;66602;48.922;2.414;2024-01-27T10:14:44;15.70;;;10.65;;
77099;SDS011;66602;48.922;2.414;2024-01-27T10:17:20;17.35;;;9.32;;
77099;SDS011;66602;48.922;2.414;2024-01-27T10:19:47;10.38;;;7.78;;
77099;SDS011;66602;48.922;2.414;2024-01-27T10:22:23;16.52;;;7.28;;
77099;SDS011;66602;48.922;2.414;2024-01-27T10:24:49;7.13;;;6.43;;
77099;SDS011;66602;48.922;2.414;2024-01-27T10:27:14;8.77;;;6.72;;
77099;SDS011;66602;48.922;2.414;2024-01-27T10:29:39;9.95;;;5.53;;
77099;SDS011;66602;48.922;2.414;2024-01-27T10:32:08;11.15;;;6.65;;
77099;SDS011;66602;48.922;2.414;2024-01-27T10:34:35;7.10;;;6.22;;
77099;SDS011;66602;48.922;2.414;2024-01-27T10:37:01;11.57;;;7.15;;
77099;SDS011;66602;48.922;2.414;2024-01-27T10:39:26;7.05;;;6.43;;
77099;SDS011;66602;48.922;2.414;2024-01-27T10:41:51;9.20;;;6.20;;
77099;SDS011;66602;48.922;2.414;2024-01-27T10:44:17;10.95;;;5.60;;
77099;SDS011;66602;48.922;2.414;2024-01-27T10:46:44;7.00;;;5.65;;
77099;SDS011;66602;48.922;2.414;2024-01-27T10:49:15;7.13;;;5.40;;
77099;SDS011;66602;48.922;2.414;2024-01-27T10:51:43;14.30;;;5.55;;
77099;SDS011;66602;48.922;2.414;2024-01-27T10:54:18;11.52;;;5.60;;
77099;SDS011;66602;48.922;2.414;2024-01-27T10:56:48;6.28;;;4.70;;
77099;SDS011;66602;48.922;2.414;2024-01-27T10:59:16;6.65;;;4.90;;
77099;SDS011;66602;48.922;2.414;2024-01-27T11:01:44;7.18;;;5.40;;
77099;SDS011;66602;48.922;2.414;2024-01-27T11:04:12;9.82;;;5.10;;
77099;SDS011;66602;48.922;2.414;2024-01-27T11:06:38;9.32;;;4.40;;
77099;SDS011;66602;48.922;2.414;2024-01-27T11:09:04;9.18;;;4.20;;
77099;SDS011;66602;48.922;2.414;2024-01-27T11:11:31;6.20;;;5.03;;
77099;SDS011;66602;48.922;2.414;2024-01-27T11:13:57;15.10;;;5.60;;
77099;SDS011;66602;48.922;2.414;2024-01-27T11:16:23;10.30;;;5.97;;
77099;SDS011;66602;48.922;2.414;2024-01-27T11:18:49;11.27;;;4.65;;
77099;SDS011;66602;48.922;2.414;2024-01-27T11:21:15;8.77;;;4.70;;
77099;SDS011;66602;48.922;2.414;2024-01-27T11:23:42;7.53;;;4.68;;
77099;SDS011;66602;48.922;2.414;2024-01-27T11:26:08;12.98;;;5.05;;
77099;SDS011;66602;48.922;2.414;2024-01-27T11:28:35;4.97;;;4.22;;
77099;SDS011;66602;48.922;2.414;2024-01-27T11:31:04;7.65;;;3.95;;
77099;SDS011;66602;48.922;2.414;2024-01-27T11:33:30;6.03;;;4.30;;
77099;SDS011;66602;48.922;2.414;2024-01-27T11:36:00;7.57;;;3.25;;
77099;SDS011;66602;48.922;2.414;2024-01-27T11:40:55;4.03;;;2.20;;
77099;SDS011;66602;48.922;2.414;2024-01-27T11:43:21;5.28;;;3.00;;
77099;SDS011;66602;48.922;2.414;2024-01-27T11:45:56;3.65;;;2.28;;
77099;SDS011;66602;48.922;2.414;2024-01-27T11:48:26;4.03;;;2.33;;
77099;SDS011;66602;48.922;2.414;2024-01-27T11:53:28;12.65;;;3.42;;
77099;SDS011;66602;48.922;2.414;2024-01-27T11:55:54;2.85;;;2.42;;
77099;SDS011;66602;48.922;2.414;2024-01-27T11:58:21;6.22;;;2.15;;
77099;SDS011;66602;48.922;2.414;2024-01-27T12:00:46;6.88;;;2.08;;
77099;SDS011;66602;48.922;2.414;2024-01-27T12:03:12;4.10;;;2.30;;
77099;SDS011;66602;48.922;2.414;2024-01-27T12:05:37;4.90;;;2.25;;
77099;SDS011;66602;48.922;2.414;2024-01-27T12:08:03;5.30;;;2.90;;
77099;SDS011;66602;48.922;2.414;2024-01-27T12:10:29;5.28;;;3.00;;
77099;SDS011;66602;48.922;2.414;2024-01-27T12:12:55;5.25;;;3.22;;
77099;SDS011;66602;48.922;2.414;2024-01-27T12:15:20;6.60;;;3.35;;
77099;SDS011;66602;48.922;2.414;2024-01-27T12:17:52;8.90;;;2.83;;
77099;SDS011;66602;48.922;2.414;2024-01-27T12:20:18;5.13;;;2.58;;
77099;SDS011;66602;48.922;2.414;2024-01-27T12:22:44;6.03;;;2.80;;
77099;SDS011;66602;48.922;2.414;2024-01-27T12:25:11;3.40;;;3.00;;
77099;SDS011;66602;48.922;2.414;2024-01-27T12:27:40;5.47;;;2.58;;
77099;SDS011;66602;48.922;2.414;2024-01-27T12:30:06;4.38;;;2.65;;
77099;SDS011;66602;48.922;2.414;2024-01-27T12:32:32;3.90;;;2.15;;
77099;SDS011;66602;48.922;2.414;2024-01-27T12:34:58;4.20;;;2.72;;
77099;SDS011;66602;48.922;2.414;2024-01-27T12:37:29;5.40;;;2.42;;
77099;SDS011;66602;48.922;2.414;2024-01-27T12:39:55;2.15;;;2.05;;
77099;SDS011;66602;48.922;2.414;2024-01-27T12:42:20;7.38;;;2.97;;
77099;SDS011;66602;48.922;2.414;2024-01-27T12:44:46;5.72;;;2.70;;
77099;SDS011;66602;48.922;2.414;2024-01-27T12:47:13;5.13;;;3.25;;
77099;SDS011;66602;48.922;2.414;2024-01-27T12:49:39;5.00;;;3.13;;
77099;SDS011;66602;48.922;2.414;2024-01-27T12:52:06;7.47;;;3.28;;
77099;SDS011;66602;48.922;2.414;2024-01-27T12:54:32;8.93;;;3.20;;
77099;SDS011;66602;48.922;2.414;2024-01-27T12:56:58;4.38;;;3.05;;
77099;SDS011;66602;48.922;2.414;2024-01-27T12:59:26;3.33;;;3.03;;
77099;SDS011;66602;48.922;2.414;2024-01-27T13:01:52;3.67;;;2.15;;
77099;SDS011;66602;48.922;2.414;2024-01-27T13:04:18;8.35;;;2.47;;
77099;SDS011;66602;48.922;2.414;2024-01-27T13:06:43;3.47;;;2.15;;
77099;SDS011;66602;48.922;2.414;2024-01-27T13:09:10;4.18;;;3.67;;
77099;SDS011;66602;48.922;2.414;2024-01-27T13:11:37;9.57;;;3.10;;
77099;SDS011;66602;48.922;2.414;2024-01-27T13:14:03;3.28;;;3.00;;
77099;SDS011;66602;48.922;2.414;2024-01-27T13:16:29;3.45;;;2.58;;
77099;SDS011;66602;48.922;2.414;2024-01-27T13:18:55;3.83;;;3.28;;
77099;SDS011;66602;48.922;2.414;2024-01-27T13:21:20;8.38;;;2.90;;
77099;SDS011;66602;48.922;2.414;2024-01-27T13:23:46;2.85;;;2.25;;
77099;SDS011;66602;48.922;2.414;2024-01-27T13:26:11;4.00;;;2.58;;
77099;SDS011;66602;48.922;2.414;2024-01-27T13:28:37;2.65;;;2.25;;
77099;SDS011;66602;48.922;2.414;2024-01-27T13:31:02;6.63;;;2.38;;
77099;SDS011;66602;48.922;2.414;2024-01-27T13:33:29;4.45;;;2.38;;
77099;SDS011;66602;48.922;2.414;2024-01-27T13:35:55;4.90;;;2.67;;
77099;SDS011;66602;48.922;2.414;2024-01-27T13:38:21;4.80;;;2.40;;
77099;SDS011;66602;48.922;2.414;2024-01-27T13:40:49;13.02;;;2.80;;
77099;SDS011;66602;48.922;2.414;2024-01-27T13:43:15;6.75;;;1.95;;
77099;SDS011;66602;48.922;2.414;2024-01-27T13:45:41;3.40;;;2.13;;
77099;SDS011;66602;48.922;2.414;2024-01-27T13:48:07;4.28;;;2.70;;
77099;SDS011;66602;48.922;2.414;2024-01-27T13:50:32;2.75;;;2.33;;
77099;SDS011;66602;48.922;2.414;2024-01-27T13:52:58;6.53;;;2.25;;
77099;SDS011;66602;48.922;2.414;2024-01-27T13:55:24;7.55;;;2.42;;
77099;SDS011;66602;48.922;2.414;2024-01-27T13:57:49;6.05;;;2.67;;
77099;SDS011;66602;48.922;2.414;2024-01-27T14:00:15;3.47;;;2.63;;
77099;SDS011;66602;48.922;2.414;2024-01-27T14:02:42;3.10;;;2.63;;
77099;SDS011;66602;48.922;2.414;2024-01-27T14:05:09;5.18;;;2.45;;
77099;SDS011;66602;48.922;2.414;2024-01-27T14:07:35;5.97;;;2.40;;
77099;SDS011;66602;48.922;2.414;2024-01-27T14:10:02;2.80;;;2.40;;
77099;SDS011;66602;48.922;2.414;2024-01-27T14:12:28;3.10;;;2.33;;
77099;SDS011;66602;48.922;2.414;2024-01-27T14:15:01;7.07;;;3.15;;
77099;SDS011;66602;48.922;2.414;2024-01-27T14:17:29;2.30;;;2.00;;
77099;SDS011;66602;48.922;2.414;2024-01-27T14:19:55;2.38;;;2.17;;
77099;SDS011;66602;48.922;2.414;2024-01-27T14:22:20;3.25;;;2.25;;
77099;SDS011;66602;48.922;2.414;2024-01-27T14:24:46;4.10;;;2.10;;
77099;SDS011;66602;48.922;2.414;2024-01-27T14:27:11;5.80;;;2.72;;
77099;SDS011;66602;48.922;2.414;2024-01-27T14:29:39;5.70;;;2.53;;
77099;SDS011;66602;48.922;2.414;2024-01-27T14:32:05;7.95;;;4.57;;
77099;SDS011;66602;48.922;2.414;2024-01-27T14:34:32;7.07;;;2.92;;
77099;SDS011;66602;48.922;2.414;2024-01-27T14:36:57;2.50;;;2.08;;
77099;SDS011;66602;48.922;2.414;2024-01-27T14:39:24;2.40;;;2.20;;
77099;SDS011;66602;48.922;2.414;2024-01-27T14:41:49;4.80;;;2.05;;